createdAt,value
2018-05-14T02:15:36.574Z,0.00
2018-05-14T02:15:37.149Z,0.00
2018-05-14T02:15:37.749Z,0.00
2018-05-14T02:15:38.349Z,0.00
2018-05-14T02:15:38.948Z,0.00
2018-05-14T02:15:39.548Z,0.00
2018-05-14T02:15:40.149Z,0.00
2018-05-14T02:15:40.753Z,0.00
2018-05-14T02:16:35.251Z,0.00
2018-05-14T02:16:35.826Z,0.00
2018-05-14T02:16:36.425Z,0.00
2018-05-14T02:16:37.028Z,0.00
2018-05-14T02:16:37.626Z,0.00
2018-05-14T02:16:38.225Z,0.00
2018-05-14T02:16:38.831Z,0.00
2018-05-14T02:16:39.426Z,0.00
2018-05-14T02:17:33.467Z,0.00
2018-05-14T02:17:33.968Z,0.00
2018-05-14T02:17:34.571Z,0.00
2018-05-14T02:17:35.171Z,0.00
2018-05-14T02:17:35.767Z,0.00
2018-05-14T02:17:36.367Z,0.00
2018-05-14T02:17:36.967Z,0.00
2018-05-14T02:18:49.784Z,0.00
2018-05-14T02:18:50.382Z,0.00
2018-05-14T02:18:50.994Z,0.00
2018-05-14T02:18:51.582Z,0.00
2018-05-14T02:18:52.182Z,0.00
2018-05-14T02:18:52.781Z,0.00
2018-05-14T02:18:53.381Z,0.00
2018-05-14T02:18:53.985Z,0.00
2018-05-14T02:19:48.459Z,0.00
2018-05-14T02:19:49.057Z,0.00
2018-05-14T02:19:49.657Z,0.00
2018-05-14T02:19:50.256Z,0.00
2018-05-14T02:19:50.858Z,0.00
2018-05-14T02:19:51.457Z,0.00
2018-05-14T02:19:52.058Z,0.00
2018-05-14T02:19:52.656Z,0.00
2018-05-14T02:20:46.114Z,0.00
2018-05-14T02:20:46.716Z,0.00
2018-05-14T02:20:47.312Z,0.00
2018-05-14T02:20:47.912Z,0.00
2018-05-14T02:20:48.512Z,0.00
2018-05-14T02:20:49.113Z,0.00
2018-05-14T02:20:49.712Z,0.00
2018-05-14T02:20:50.312Z,0.00
2018-05-14T02:21:44.813Z,0.00
2018-05-14T02:21:45.386Z,0.00
2018-05-14T02:21:45.990Z,0.00
2018-05-14T02:21:46.587Z,0.00
2018-05-14T02:21:47.193Z,0.00
2018-05-14T02:21:47.784Z,0.00
2018-05-14T02:21:48.386Z,0.00
2018-05-14T02:21:48.989Z,0.00
2018-05-14T02:22:42.440Z,0.00
2018-05-14T02:22:43.039Z,0.00
2018-05-14T02:22:43.641Z,0.00
2018-05-14T02:22:44.239Z,0.00
2018-05-14T02:22:44.840Z,0.00
2018-05-14T02:22:45.442Z,0.00
2018-05-14T02:22:46.038Z,0.00
2018-05-14T02:22:46.639Z,0.00
2018-05-14T02:23:41.119Z,0.00
2018-05-14T02:23:41.714Z,0.00
2018-05-14T02:23:42.316Z,0.00
2018-05-14T02:23:42.916Z,0.00
2018-05-14T02:23:43.514Z,0.00
2018-05-14T02:23:44.113Z,0.00
2018-05-14T02:23:44.724Z,0.00
2018-05-14T02:23:45.313Z,0.00
2018-05-14T02:24:38.772Z,0.00
2018-05-14T02:24:39.366Z,0.00
2018-05-14T02:24:39.968Z,0.00
2018-05-14T02:24:40.567Z,0.00
2018-05-14T02:24:41.166Z,0.00
2018-05-14T02:24:41.767Z,0.00
2018-05-14T02:24:42.365Z,0.00
2018-05-14T02:24:42.967Z,0.00
2018-05-14T02:25:37.507Z,0.00
2018-05-14T02:25:38.045Z,0.00
2018-05-14T02:25:38.648Z,0.00
2018-05-14T02:25:39.241Z,0.00
2018-05-14T02:25:39.842Z,0.00
2018-05-14T02:25:40.442Z,0.00
2018-05-14T02:25:41.039Z,0.00
2018-05-14T02:25:41.641Z,0.00
2018-05-14T02:26:36.121Z,0.00
2018-05-14T02:26:36.717Z,0.00
2018-05-14T02:26:37.320Z,0.00
2018-05-14T02:26:37.918Z,0.00
2018-05-14T02:26:38.517Z,0.00
2018-05-14T02:26:39.130Z,0.00
2018-05-14T02:26:39.716Z,0.00
2018-05-14T02:26:40.317Z,0.00
2018-05-14T02:27:33.796Z,0.00
2018-05-14T02:27:34.370Z,0.00
2018-05-14T02:27:34.971Z,0.00
2018-05-14T02:27:35.571Z,0.00
2018-05-14T02:27:36.169Z,0.00
2018-05-14T02:27:36.771Z,0.00
2018-05-14T02:27:37.370Z,0.00
2018-05-14T02:27:37.969Z,0.00
2018-05-14T02:28:31.427Z,0.00
2018-05-14T02:28:32.023Z,0.00
2018-05-14T02:28:32.622Z,0.00
2018-05-14T02:28:33.222Z,0.00
2018-05-14T02:28:33.822Z,0.00
2018-05-14T02:28:34.430Z,0.00
2018-05-14T02:28:35.021Z,0.00
2018-05-14T02:28:35.626Z,0.00
2018-05-14T02:29:29.147Z,0.00
2018-05-14T02:29:29.674Z,0.00
2018-05-14T02:29:30.284Z,0.00
2018-05-14T02:29:30.964Z,0.00
2018-05-14T02:29:31.560Z,0.00
2018-05-14T02:29:32.252Z,0.00
2018-05-14T02:29:32.809Z,0.00
2018-05-14T02:29:33.308Z,0.00
2018-05-14T02:30:27.752Z,0.00
2018-05-14T02:30:28.350Z,0.00
2018-05-14T02:30:28.950Z,0.00
2018-05-14T02:30:29.548Z,0.00
2018-05-14T02:30:30.152Z,0.00
2018-05-14T02:30:30.751Z,0.00
2018-05-14T02:30:31.347Z,0.00
2018-05-14T02:30:31.946Z,0.00
2018-05-14T02:31:25.404Z,0.00
2018-05-14T02:31:26.002Z,0.00
2018-05-14T02:31:26.613Z,0.00
2018-05-14T02:31:27.202Z,0.00
2018-05-14T02:31:27.801Z,0.00
2018-05-14T02:31:28.400Z,0.00
2018-05-14T02:31:29.003Z,0.00
2018-05-14T02:31:29.602Z,0.00
2018-05-14T02:32:23.085Z,0.00
2018-05-14T02:32:23.654Z,0.00
2018-05-14T02:32:24.259Z,0.00
2018-05-14T02:32:24.857Z,0.00
2018-05-14T02:32:25.453Z,0.00
2018-05-14T02:32:26.053Z,0.00
2018-05-14T02:32:26.652Z,0.00
2018-05-14T02:32:27.255Z,0.00
2018-05-14T02:33:20.709Z,0.00
2018-05-14T02:33:21.305Z,0.00
2018-05-14T02:33:21.905Z,0.00
2018-05-14T02:33:22.504Z,0.00
2018-05-14T02:33:23.105Z,0.00
2018-05-14T02:33:23.706Z,0.00
2018-05-14T02:33:24.304Z,0.00
2018-05-14T02:33:24.906Z,0.00
2018-05-14T02:34:19.439Z,0.00
2018-05-14T02:34:19.739Z,0.00
2018-05-14T02:34:19.921Z,0.00
2018-05-14T02:34:20.260Z,0.00
2018-05-14T02:34:20.904Z,0.00
2018-05-14T02:34:21.550Z,0.00
2018-05-14T02:34:22.057Z,0.00
2018-05-14T02:34:22.727Z,0.00
2018-05-14T02:35:16.115Z,0.00
2018-05-14T02:35:16.711Z,0.00
2018-05-14T02:35:17.313Z,0.00
2018-05-14T02:35:17.911Z,0.00
2018-05-14T02:35:18.512Z,0.00
2018-05-14T02:35:19.110Z,0.00
2018-05-14T02:35:19.709Z,0.00
2018-05-14T02:35:20.318Z,0.00
2018-05-14T02:36:14.800Z,0.00
2018-05-14T02:36:15.386Z,0.00
2018-05-14T02:36:15.986Z,0.00
2018-05-14T02:36:16.587Z,0.00
2018-05-14T02:36:17.185Z,0.00
2018-05-14T02:36:17.787Z,0.00
2018-05-14T02:36:18.395Z,0.00
2018-05-14T02:36:18.997Z,0.00
2018-05-14T02:37:13.486Z,0.00
2018-05-14T02:37:14.070Z,0.00
2018-05-14T02:37:14.662Z,0.00
2018-05-14T02:37:15.261Z,0.00
2018-05-14T02:37:15.860Z,0.00
2018-05-14T02:37:16.460Z,0.00
2018-05-14T02:37:17.060Z,0.00
2018-05-14T02:37:17.663Z,0.00
2018-05-14T02:38:11.116Z,0.00
2018-05-14T02:38:11.717Z,0.00
2018-05-14T02:38:12.313Z,0.00
2018-05-14T02:38:12.919Z,0.00
2018-05-14T02:38:13.518Z,0.00
2018-05-14T02:38:14.112Z,0.00
2018-05-14T02:38:14.715Z,0.00
2018-05-14T02:38:15.314Z,0.00
2018-05-14T02:39:08.768Z,0.00
2018-05-14T02:39:09.367Z,0.00
2018-05-14T02:39:09.966Z,0.00
2018-05-14T02:39:10.566Z,0.00
2018-05-14T02:39:11.165Z,0.00
2018-05-14T02:39:11.766Z,0.00
2018-05-14T02:39:12.368Z,0.00
2018-05-14T02:39:12.970Z,0.00
2018-05-14T02:40:07.444Z,4.00
2018-05-14T02:40:08.042Z,4.00
2018-05-14T02:40:08.641Z,4.00
2018-05-14T02:40:09.241Z,4.00
2018-05-14T02:40:09.840Z,4.00
2018-05-14T02:40:10.442Z,4.00
2018-05-14T02:40:11.041Z,4.00
2018-05-14T02:40:11.646Z,4.00
2018-05-14T02:41:05.106Z,4.00
2018-05-14T02:41:05.693Z,4.00
2018-05-14T02:41:06.298Z,4.00
2018-05-14T02:41:06.893Z,4.00
2018-05-14T02:41:07.495Z,4.00
2018-05-14T02:41:08.094Z,4.00
2018-05-14T02:41:08.702Z,4.00
2018-05-14T02:41:09.400Z,4.00
2018-05-14T02:42:02.778Z,0.00
2018-05-14T02:42:03.358Z,0.00
2018-05-14T02:42:03.944Z,0.00
2018-05-14T02:42:04.545Z,0.00
2018-05-14T02:42:05.144Z,0.00
2018-05-14T02:42:05.745Z,0.00
2018-05-14T02:42:06.344Z,0.00
2018-05-14T02:42:06.943Z,0.00
2018-05-14T02:43:00.413Z,0.00
2018-05-14T02:43:00.999Z,0.00
2018-05-14T02:43:01.598Z,0.00
2018-05-14T02:43:02.197Z,0.00
2018-05-14T02:43:02.797Z,0.00
2018-05-14T02:43:03.397Z,0.00
2018-05-14T02:43:03.997Z,0.00
2018-05-14T02:43:04.597Z,0.00
2018-05-14T02:43:58.051Z,0.00
2018-05-14T02:43:58.651Z,0.00
2018-05-14T02:43:59.249Z,0.00
2018-05-14T02:43:59.851Z,0.00
2018-05-14T02:44:00.452Z,0.00
2018-05-14T02:44:01.056Z,0.00
2018-05-14T02:44:01.649Z,0.00
2018-05-14T02:44:02.249Z,0.00
2018-05-14T02:44:55.703Z,4.00
2018-05-14T02:44:56.304Z,4.00
2018-05-14T02:44:56.904Z,4.00
2018-05-14T02:44:57.500Z,4.00
2018-05-14T02:44:58.099Z,4.00
2018-05-14T02:44:58.700Z,4.00
2018-05-14T02:44:59.303Z,4.00
2018-05-14T02:44:59.900Z,4.00
2018-05-14T02:45:54.378Z,0.00
2018-05-14T02:45:54.974Z,4.00
2018-05-14T02:45:55.577Z,4.00
2018-05-14T02:45:56.176Z,0.00
2018-05-14T02:45:56.775Z,4.00
2018-05-14T02:45:57.375Z,0.00
2018-05-14T02:45:57.975Z,0.00
2018-05-14T02:45:58.579Z,0.00
2018-05-14T02:46:52.034Z,4.00
2018-05-14T02:46:52.629Z,4.00
2018-05-14T02:46:53.228Z,4.00
2018-05-14T02:46:53.826Z,4.00
2018-05-14T02:46:54.427Z,4.00
2018-05-14T02:46:55.028Z,4.00
2018-05-14T02:46:55.630Z,4.00
2018-05-14T02:46:56.228Z,4.00
2018-05-14T02:47:49.705Z,4.00
2018-05-14T02:47:50.280Z,4.00
2018-05-14T02:47:50.879Z,4.00
2018-05-14T02:47:51.479Z,4.00
2018-05-14T02:47:52.082Z,4.00
2018-05-14T02:47:52.681Z,4.00
2018-05-14T02:47:53.282Z,4.00
2018-05-14T02:47:53.880Z,4.00
2018-05-14T02:48:47.336Z,4.00
2018-05-14T02:48:47.934Z,4.00
2018-05-14T02:48:48.537Z,4.00
2018-05-14T02:48:49.131Z,4.00
2018-05-14T02:48:49.745Z,4.00
2018-05-14T02:48:50.330Z,4.00
2018-05-14T02:48:50.932Z,4.00
2018-05-14T02:48:51.532Z,4.00
2018-05-14T02:49:46.010Z,4.00
2018-05-14T02:49:46.608Z,4.00
2018-05-14T02:49:47.206Z,4.00
2018-05-14T02:49:47.806Z,4.00
2018-05-14T02:49:48.407Z,4.00
2018-05-14T02:49:49.007Z,4.00
2018-05-14T02:49:49.607Z,4.00
2018-05-14T02:49:50.218Z,4.00
2018-05-14T02:50:43.663Z,4.00
2018-05-14T02:50:44.260Z,4.00
2018-05-14T02:50:44.860Z,4.00
2018-05-14T02:50:45.465Z,4.00
2018-05-14T02:50:46.059Z,4.00
2018-05-14T02:50:46.659Z,4.00
2018-05-14T02:50:47.258Z,4.00
2018-05-14T02:50:47.860Z,4.00
2018-05-14T02:51:41.312Z,4.00
2018-05-14T02:51:41.910Z,4.00
2018-05-14T02:51:42.510Z,4.00
2018-05-14T02:51:43.161Z,4.00
2018-05-14T02:51:43.709Z,4.00
2018-05-14T02:51:44.322Z,4.00
2018-05-14T02:51:44.911Z,4.00
2018-05-14T02:51:45.510Z,4.00
2018-05-14T02:52:38.988Z,4.00
2018-05-14T02:52:39.561Z,4.00
2018-05-14T02:52:40.162Z,4.00
2018-05-14T02:52:40.764Z,4.00
2018-05-14T02:52:41.362Z,4.00
2018-05-14T02:52:41.965Z,4.00
2018-05-14T02:52:42.560Z,4.00
2018-05-14T02:52:43.161Z,4.00
2018-05-14T02:53:37.640Z,4.00
2018-05-14T02:53:38.238Z,4.00
2018-05-14T02:53:38.836Z,8.00
2018-05-14T02:53:39.512Z,4.00
2018-05-14T02:53:40.037Z,4.00
2018-05-14T02:53:40.639Z,4.00
2018-05-14T02:53:41.236Z,4.00
2018-05-14T02:53:41.836Z,4.00
2018-05-14T02:54:35.292Z,4.00
2018-05-14T02:54:35.889Z,4.00
2018-05-14T02:54:36.491Z,4.00
2018-05-14T02:54:37.092Z,4.00
2018-05-14T02:54:37.690Z,8.00
2018-05-14T02:54:38.289Z,8.00
2018-05-14T02:54:38.893Z,8.00
2018-05-14T02:54:39.490Z,8.00
2018-05-14T02:55:34.034Z,8.00
2018-05-14T02:55:34.564Z,8.00
2018-05-14T02:55:35.164Z,8.00
2018-05-14T02:55:35.763Z,8.00
2018-05-14T02:55:36.363Z,8.00
2018-05-14T02:55:36.965Z,8.00
2018-05-14T02:55:37.562Z,8.00
2018-05-14T02:55:38.167Z,8.00
2018-05-14T02:56:31.619Z,12.00
2018-05-14T02:56:32.222Z,12.00
2018-05-14T02:56:32.817Z,12.00
2018-05-14T02:56:33.417Z,12.00
2018-05-14T02:56:34.017Z,12.00
2018-05-14T02:56:34.618Z,12.00
2018-05-14T02:56:35.217Z,12.00
2018-05-14T02:56:35.817Z,12.00
2018-05-14T02:57:30.323Z,8.00
2018-05-14T02:57:30.909Z,8.00
2018-05-14T02:57:31.490Z,8.00
2018-05-14T02:57:32.090Z,8.00
2018-05-14T02:57:32.690Z,8.00
2018-05-14T02:57:33.294Z,8.00
2018-05-14T02:57:33.891Z,12.00
2018-05-14T02:57:34.490Z,12.00
2018-05-14T02:58:28.971Z,12.00
2018-05-14T02:58:29.581Z,12.00
2018-05-14T02:58:30.180Z,12.00
2018-05-14T02:58:30.767Z,12.00
2018-05-14T02:58:31.367Z,16.00
2018-05-14T02:58:31.969Z,16.00
2018-05-14T02:58:32.578Z,16.00
2018-05-14T02:58:33.166Z,16.00
2018-05-14T02:59:27.646Z,16.00
2018-05-14T02:59:28.249Z,16.00
2018-05-14T02:59:28.849Z,16.00
2018-05-14T02:59:29.442Z,16.00
2018-05-14T02:59:30.043Z,16.00
2018-05-14T02:59:30.646Z,16.00
2018-05-14T02:59:31.242Z,16.00
2018-05-14T02:59:31.844Z,16.00
2018-05-14T03:00:37.997Z,16.00
2018-05-14T03:00:38.598Z,16.00
2018-05-14T03:00:39.195Z,16.00
2018-05-14T03:00:39.795Z,16.00
2018-05-14T03:00:40.394Z,16.00
2018-05-14T03:00:40.991Z,16.00
2018-05-14T03:00:41.590Z,16.00
2018-05-14T03:00:42.190Z,16.00
2018-05-14T03:01:36.672Z,20.00
2018-05-14T03:01:37.271Z,20.00
2018-05-14T03:01:37.868Z,20.00
2018-05-14T03:01:38.472Z,20.00
2018-05-14T03:01:39.069Z,20.00
2018-05-14T03:01:39.671Z,20.00
2018-05-14T03:01:40.271Z,20.00
2018-05-14T03:01:40.868Z,20.00
2018-05-14T03:02:35.379Z,24.00
2018-05-14T03:02:35.947Z,24.00
2018-05-14T03:02:36.545Z,24.00
2018-05-14T03:02:37.148Z,24.00
2018-05-14T03:02:37.744Z,24.00
2018-05-14T03:02:38.350Z,20.00
2018-05-14T03:02:38.944Z,20.00
2018-05-14T03:02:39.548Z,20.00
2018-05-14T03:03:34.024Z,24.00
2018-05-14T03:03:34.621Z,24.00
2018-05-14T03:03:35.221Z,24.00
2018-05-14T03:03:35.822Z,24.00
2018-05-14T03:03:36.421Z,24.00
2018-05-14T03:03:37.021Z,24.00
2018-05-14T03:03:37.621Z,24.00
2018-05-14T03:03:38.221Z,24.00
2018-05-14T03:04:31.678Z,28.00
2018-05-14T03:04:32.281Z,28.00
2018-05-14T03:04:32.873Z,28.00
2018-05-14T03:04:33.473Z,28.00
2018-05-14T03:04:34.073Z,28.00
2018-05-14T03:04:34.672Z,28.00
2018-05-14T03:04:35.273Z,28.00
2018-05-14T03:04:35.891Z,28.00
2018-05-14T03:05:29.327Z,32.00
2018-05-14T03:05:29.925Z,32.00
2018-05-14T03:05:30.522Z,32.00
2018-05-14T03:05:31.126Z,32.00
2018-05-14T03:05:31.725Z,32.00
2018-05-14T03:05:32.327Z,32.00
2018-05-14T03:05:32.926Z,32.00
2018-05-14T03:05:33.529Z,32.00
2018-05-14T03:06:28.002Z,36.00
2018-05-14T03:06:28.604Z,36.00
2018-05-14T03:06:29.204Z,32.00
2018-05-14T03:06:29.800Z,32.00
2018-05-14T03:06:30.399Z,32.00
2018-05-14T03:06:31.000Z,32.00
2018-05-14T03:06:31.599Z,32.00
2018-05-14T03:06:32.199Z,32.00
2018-05-14T03:07:26.687Z,40.00
2018-05-14T03:07:27.276Z,40.00
2018-05-14T03:07:27.875Z,40.00
2018-05-14T03:07:28.475Z,40.00
2018-05-14T03:07:29.076Z,40.00
2018-05-14T03:07:29.675Z,40.00
2018-05-14T03:07:30.273Z,40.00
2018-05-14T03:07:30.875Z,40.00
2018-05-14T03:08:24.353Z,44.00
2018-05-14T03:08:24.930Z,44.00
2018-05-14T03:08:25.527Z,44.00
2018-05-14T03:08:26.127Z,44.00
2018-05-14T03:08:26.729Z,44.00
2018-05-14T03:08:27.327Z,44.00
2018-05-14T03:08:27.928Z,44.00
2018-05-14T03:08:28.527Z,44.00
2018-05-14T03:09:21.981Z,48.00
2018-05-14T03:09:22.580Z,48.00
2018-05-14T03:09:23.179Z,48.00
2018-05-14T03:09:23.781Z,52.00
2018-05-14T03:09:24.383Z,48.00
2018-05-14T03:09:24.979Z,48.00
2018-05-14T03:09:25.619Z,48.00
2018-05-14T03:09:26.178Z,48.00
2018-05-14T03:10:20.691Z,52.00
2018-05-14T03:10:21.308Z,52.00
2018-05-14T03:10:21.876Z,56.00
2018-05-14T03:10:22.508Z,56.00
2018-05-14T03:10:23.131Z,56.00
2018-05-14T03:10:23.717Z,56.00
2018-05-14T03:10:24.333Z,56.00
2018-05-14T03:10:24.859Z,56.00
2018-05-14T03:11:19.336Z,60.00
2018-05-14T03:11:19.931Z,60.00
2018-05-14T03:11:20.531Z,60.00
2018-05-14T03:11:21.131Z,60.00
2018-05-14T03:11:21.730Z,60.00
2018-05-14T03:11:22.330Z,60.00
2018-05-14T03:11:22.930Z,60.00
2018-05-14T03:11:23.532Z,64.00
2018-05-14T03:12:18.009Z,68.00
2018-05-14T03:12:18.605Z,64.00
2018-05-14T03:29:31.261Z,300.00
2018-05-14T03:29:31.830Z,300.00
2018-05-14T03:29:32.434Z,300.00
2018-05-14T03:29:33.031Z,304.00
2018-05-14T03:29:33.631Z,304.00
2018-05-14T03:29:34.230Z,304.00
2018-05-14T03:29:34.830Z,304.00
2018-05-14T03:29:35.437Z,300.00
2018-05-14T03:30:29.910Z,324.00
2018-05-14T03:30:30.506Z,324.00
2018-05-14T03:30:31.116Z,324.00
2018-05-14T03:30:31.704Z,324.00
2018-05-14T03:30:32.315Z,320.00
2018-05-14T03:30:32.905Z,324.00
2018-05-14T03:30:33.504Z,324.00
2018-05-14T03:30:34.103Z,324.00
2018-05-14T03:31:27.572Z,344.00
2018-05-14T03:31:28.163Z,344.00
2018-05-14T03:31:28.761Z,348.00
2018-05-14T03:31:29.361Z,344.00
2018-05-14T03:31:29.959Z,344.00
2018-05-14T03:31:30.558Z,344.00
2018-05-14T03:31:31.162Z,344.00
2018-05-14T03:31:31.759Z,348.00
2018-05-14T03:32:26.263Z,368.00
2018-05-14T03:32:26.834Z,368.00
2018-05-14T03:32:27.437Z,368.00
2018-05-14T03:32:28.036Z,368.00
2018-05-14T03:32:28.633Z,368.00
2018-05-14T03:32:29.233Z,368.00
2018-05-14T03:32:29.834Z,368.00
2018-05-14T03:32:30.434Z,368.00
2018-05-14T03:33:23.889Z,392.00
2018-05-14T03:33:24.488Z,392.00
2018-05-14T03:33:25.089Z,392.00
2018-05-14T03:33:25.692Z,392.00
2018-05-14T03:33:26.287Z,392.00
2018-05-14T03:33:26.889Z,392.00
2018-05-14T03:33:27.489Z,392.00
2018-05-14T03:33:28.089Z,396.00
2018-05-14T03:34:21.543Z,416.00
2018-05-14T03:34:22.220Z,420.00
2018-05-14T03:34:22.740Z,416.00
2018-05-14T03:34:23.340Z,416.00
2018-05-14T03:34:23.939Z,416.00
2018-05-14T03:34:24.541Z,420.00
2018-05-14T03:34:25.175Z,420.00
2018-05-14T03:34:25.739Z,420.00
2018-05-14T03:35:20.218Z,444.00
2018-05-14T03:35:20.816Z,444.00
2018-05-14T03:35:21.414Z,444.00
2018-05-14T03:35:22.015Z,444.00
2018-05-14T03:35:22.615Z,444.00
2018-05-14T03:35:23.216Z,444.00
2018-05-14T03:35:23.821Z,448.00
2018-05-14T03:35:24.415Z,444.00
2018-05-14T03:36:17.874Z,472.00
2018-05-14T03:36:18.468Z,468.00
2018-05-14T03:36:19.068Z,472.00
2018-05-14T03:36:19.667Z,472.00
2018-05-14T03:36:20.269Z,472.00
2018-05-14T03:36:20.867Z,472.00
2018-05-14T03:36:21.468Z,476.00
2018-05-14T03:36:22.068Z,472.00
2018-05-14T03:37:15.553Z,500.00
2018-05-14T03:37:16.122Z,500.00
2018-05-14T03:37:16.726Z,500.00
2018-05-14T03:37:17.320Z,500.00
2018-05-14T03:37:17.920Z,500.00
2018-05-14T03:37:18.519Z,500.00
2018-05-14T03:37:19.123Z,500.00
2018-05-14T03:37:19.719Z,504.00
2018-05-14T03:38:14.202Z,532.00
2018-05-14T03:38:14.794Z,528.00
2018-05-14T03:38:15.396Z,528.00
2018-05-14T03:38:15.995Z,528.00
2018-05-14T03:38:16.594Z,532.00
2018-05-14T03:38:17.195Z,532.00
2018-05-14T03:38:17.796Z,528.00
2018-05-14T03:38:18.400Z,532.00
2018-05-14T03:39:12.879Z,560.00
2018-05-14T03:39:13.473Z,560.00
2018-05-14T03:39:14.071Z,560.00
2018-05-14T03:39:14.673Z,560.00
2018-05-14T03:39:15.273Z,560.00
2018-05-14T03:39:15.869Z,564.00
2018-05-14T03:39:16.470Z,564.00
2018-05-14T03:39:17.071Z,560.00
2018-05-14T03:40:11.553Z,596.00
2018-05-14T03:40:12.147Z,592.00
2018-05-14T03:40:12.747Z,592.00
2018-05-14T03:40:13.345Z,592.00
2018-05-14T03:40:13.948Z,596.00
2018-05-14T03:40:14.544Z,596.00
2018-05-14T03:40:15.150Z,592.00
2018-05-14T03:40:15.744Z,596.00
2018-05-14T03:41:09.205Z,624.00
2018-05-14T03:41:09.799Z,624.00
2018-05-14T03:41:10.398Z,628.00
2018-05-14T03:41:11.001Z,628.00
2018-05-14T03:41:11.600Z,624.00
2018-05-14T03:41:12.207Z,628.00
2018-05-14T03:41:12.797Z,628.00
2018-05-14T03:41:13.399Z,628.00
2018-05-14T03:42:07.908Z,660.00
2018-05-14T03:42:08.473Z,660.00
2018-05-14T03:42:09.073Z,660.00
2018-05-14T03:42:09.675Z,664.00
2018-05-14T03:42:10.274Z,664.00
2018-05-14T03:42:10.872Z,660.00
2018-05-14T03:42:11.472Z,664.00
2018-05-14T03:42:12.072Z,664.00
2018-05-14T03:43:05.534Z,696.00
2018-05-14T03:43:06.126Z,696.00
2018-05-14T03:43:06.731Z,696.00
2018-05-14T03:43:07.331Z,700.00
2018-05-14T03:43:07.930Z,696.00
2018-05-14T03:43:08.528Z,696.00
2018-05-14T03:43:09.131Z,696.00
2018-05-14T03:43:09.726Z,700.00
2018-05-14T03:44:04.206Z,736.00
2018-05-14T03:44:04.801Z,732.00
2018-05-14T03:44:05.402Z,732.00
2018-05-14T03:44:06.001Z,736.00
2018-05-14T03:44:06.605Z,736.00
2018-05-14T03:44:07.204Z,736.00
2018-05-14T03:44:07.800Z,736.00
2018-05-14T03:44:08.401Z,736.00
2018-05-14T03:45:01.859Z,768.00
2018-05-14T03:45:02.459Z,772.00
2018-05-14T03:45:03.054Z,772.00
2018-05-14T03:45:03.655Z,772.00
2018-05-14T03:45:04.254Z,776.00
2018-05-14T03:45:04.854Z,772.00
2018-05-14T03:45:05.454Z,776.00
2018-05-14T03:45:06.053Z,776.00
2018-05-14T03:46:00.539Z,812.00
2018-05-14T03:46:01.128Z,812.00
2018-05-14T03:46:01.727Z,812.00
2018-05-14T03:46:02.329Z,812.00
2018-05-14T03:46:02.927Z,816.00
2018-05-14T03:46:03.533Z,812.00
2018-05-14T03:46:04.126Z,812.00
2018-05-14T03:46:04.726Z,816.00
2018-05-14T03:46:59.208Z,856.00
2018-05-14T03:46:59.804Z,856.00
2018-05-14T03:47:00.405Z,852.00
2018-05-14T03:47:01.006Z,856.00
2018-05-14T03:47:01.605Z,856.00
2018-05-14T03:47:02.204Z,856.00
2018-05-14T03:47:02.804Z,856.00
2018-05-14T03:47:03.405Z,856.00
2018-05-14T03:47:56.885Z,900.00
2018-05-14T03:47:57.458Z,896.00
2018-05-14T03:47:58.057Z,896.00
2018-05-14T03:47:58.656Z,900.00
2018-05-14T03:47:59.257Z,900.00
2018-05-14T03:47:59.858Z,896.00
2018-05-14T03:48:00.457Z,900.00
2018-05-14T03:48:01.079Z,900.00
2018-05-14T03:48:55.537Z,940.00
2018-05-14T03:48:56.133Z,944.00
2018-05-14T03:48:56.735Z,940.00
2018-05-14T03:48:57.332Z,940.00
2018-05-14T03:48:57.932Z,944.00
2018-05-14T03:48:58.530Z,944.00
2018-05-14T03:48:59.136Z,940.00
2018-05-14T03:48:59.735Z,944.00
2018-05-14T03:49:53.189Z,984.00
2018-05-14T03:49:53.785Z,984.00
2018-05-14T03:49:54.384Z,984.00
2018-05-14T03:49:54.983Z,984.00
2018-05-14T03:49:55.584Z,984.00
2018-05-14T03:49:56.183Z,984.00
2018-05-14T03:49:56.784Z,988.00
2018-05-14T03:49:57.384Z,988.00
2018-05-14T03:50:51.866Z,1032.00
2018-05-14T03:50:52.479Z,1028.00
2018-05-14T03:50:53.060Z,1028.00
2018-05-14T03:50:53.660Z,1032.00
2018-05-14T03:50:54.259Z,1032.00
2018-05-14T03:50:54.859Z,1028.00
2018-05-14T03:50:55.460Z,1032.00
2018-05-14T03:50:56.058Z,1032.00
2018-05-14T03:51:49.517Z,1076.00
2018-05-14T03:51:50.112Z,1072.00
2018-05-14T03:51:50.712Z,1076.00
2018-05-14T03:51:51.313Z,1076.00
2018-05-14T03:51:51.912Z,1076.00
2018-05-14T03:51:52.511Z,1080.00
2018-05-14T03:51:53.110Z,1076.00
2018-05-14T03:51:53.716Z,1076.00
2018-05-14T03:52:48.215Z,1124.00
2018-05-14T03:52:48.787Z,1124.00
2018-05-14T03:52:49.388Z,1124.00
2018-05-14T03:52:49.987Z,1124.00
2018-05-14T03:52:50.586Z,1124.00
2018-05-14T03:52:51.188Z,1128.00
2018-05-14T03:52:51.792Z,1128.00
2018-05-14T03:52:52.387Z,1124.00
2018-05-14T03:53:46.869Z,1168.00
2018-05-14T03:53:47.463Z,1172.00
2018-05-14T03:53:48.069Z,1172.00
2018-05-14T03:53:48.669Z,1172.00
2018-05-14T03:53:49.268Z,1172.00
2018-05-14T03:53:49.864Z,1172.00
2018-05-14T03:53:50.461Z,1176.00
2018-05-14T03:53:51.062Z,1176.00
2018-05-14T03:54:44.518Z,1220.00
2018-05-14T03:54:45.114Z,1224.00
2018-05-14T03:54:45.714Z,1224.00
2018-05-14T03:54:46.320Z,1224.00
2018-05-14T03:54:46.924Z,1220.00
2018-05-14T03:54:47.515Z,1224.00
2018-05-14T03:54:48.116Z,1224.00
2018-05-14T03:54:48.716Z,1228.00
2018-05-14T03:55:42.174Z,1272.00
2018-05-14T03:55:42.768Z,1268.00
2018-05-14T03:55:43.369Z,1272.00
2018-05-14T03:55:43.967Z,1272.00
2018-05-14T03:55:44.568Z,1276.00
2018-05-14T03:55:45.169Z,1272.00
2018-05-14T03:55:45.773Z,1272.00
2018-05-14T03:55:46.366Z,1276.00
2018-05-14T03:56:39.823Z,1320.00
2018-05-14T03:56:40.424Z,1324.00
2018-05-14T03:56:41.018Z,1324.00
2018-05-14T03:56:41.622Z,1320.00
2018-05-14T03:56:42.219Z,1324.00
2018-05-14T03:56:42.819Z,1324.00
2018-05-14T03:56:43.428Z,1324.00
2018-05-14T03:56:44.017Z,1324.00
2018-05-14T03:57:38.522Z,1376.00
2018-05-14T03:57:39.100Z,1376.00
2018-05-14T03:57:39.694Z,1376.00
2018-05-14T03:57:40.294Z,1372.00
2018-05-14T03:57:40.894Z,1376.00
2018-05-14T03:57:41.493Z,1376.00
2018-05-14T03:57:42.095Z,1380.00
2018-05-14T03:57:42.694Z,1380.00
2018-05-14T03:58:36.157Z,1428.00
2018-05-14T03:58:36.748Z,1428.00
2018-05-14T03:58:37.347Z,1428.00
2018-05-14T03:58:37.945Z,1432.00
2018-05-14T03:58:38.545Z,1432.00
2018-05-14T03:58:39.147Z,1428.00
2018-05-14T03:58:39.751Z,1432.00
2018-05-14T03:58:40.345Z,1432.00
2018-05-14T03:59:34.827Z,1484.00
2018-05-14T03:59:35.422Z,1484.00
2018-05-14T03:59:36.024Z,1484.00
2018-05-14T03:59:36.624Z,1488.00
2018-05-14T03:59:37.221Z,1488.00
2018-05-14T03:59:37.820Z,1484.00
2018-05-14T03:59:38.425Z,1488.00
2018-05-14T03:59:39.021Z,1488.00
2018-05-14T04:00:32.479Z,1540.00
2018-05-14T04:00:33.074Z,1540.00
2018-05-14T04:00:33.678Z,1536.00
2018-05-14T04:00:34.274Z,1540.00
2018-05-14T04:00:34.873Z,1540.00
2018-05-14T04:00:35.474Z,1544.00
2018-05-14T04:00:36.074Z,1540.00
2018-05-14T04:00:36.673Z,1544.00
2018-05-14T04:01:30.142Z,1592.00
2018-05-14T04:01:30.726Z,1596.00
2018-05-14T04:01:31.327Z,1592.00
2018-05-14T04:01:31.928Z,1592.00
2018-05-14T04:01:32.525Z,1596.00
2018-05-14T04:01:33.125Z,1596.00
2018-05-14T04:01:33.727Z,1592.00
2018-05-14T04:01:34.329Z,1596.00
2018-05-14T04:02:28.839Z,1644.00
2018-05-14T04:02:29.519Z,1648.00
2018-05-14T04:02:30.008Z,1648.00
2018-05-14T04:02:30.658Z,1648.00
2018-05-14T04:02:31.273Z,1648.00
2018-05-14T04:02:31.800Z,1648.00
2018-05-14T04:02:32.404Z,1652.00
2018-05-14T04:02:33.000Z,1648.00
2018-05-14T04:03:26.457Z,1700.00
2018-05-14T04:03:27.055Z,1696.00
2018-05-14T04:03:27.657Z,1700.00
2018-05-14T04:03:28.253Z,1700.00
2018-05-14T04:03:28.852Z,1700.00
2018-05-14T04:03:29.453Z,1700.00
2018-05-14T04:03:30.053Z,1700.00
2018-05-14T04:03:30.655Z,1700.00
2018-05-14T04:04:24.108Z,1752.00
2018-05-14T04:04:24.705Z,1752.00
2018-05-14T04:04:25.308Z,1752.00
2018-05-14T04:04:25.907Z,1748.00
2018-05-14T04:04:26.507Z,1756.00
2018-05-14T04:04:27.108Z,1752.00
2018-05-14T04:04:27.704Z,1752.00
2018-05-14T04:04:28.303Z,1756.00
2018-05-14T04:05:22.786Z,1808.00
2018-05-14T04:05:23.381Z,1808.00
2018-05-14T04:05:23.984Z,1808.00
2018-05-14T04:05:24.581Z,1812.00
2018-05-14T04:05:25.179Z,1808.00
2018-05-14T04:05:25.780Z,1808.00
2018-05-14T04:05:26.380Z,1812.00
2018-05-14T04:05:26.983Z,1812.00
2018-05-14T04:06:21.458Z,1856.00